Time;durP1;ratioP1;P1;durP2;ratioP2;P2;SDS_P1;SDS_P2;PMS_P1;PMS_P2;Temp;Humidity;BMP_temperature;BMP_pressure;BME280_temperature;BME280_humidity;BME280_pressure;Samples;Min_cycle;Max_cycle;Signal;HPM_P1;HPM_P2
2023/01/04 00:00:37;;;;;;;;;;;20.10;53.80;;;;;;1602122;73;775;-70
2023/01/04 00:02:39;;;;;;;;;;;20.10;53.90;;;;;;1594951;73;747;-70
2023/01/04 00:04:41;;;;;;;;;;;20.10;53.90;;;;;;1603251;73;724;-72
2023/01/04 00:06:43;;;;;;;;;;;20.10;53.90;;;;;;1603185;73;745;-71
2023/01/04 00:08:44;;;;;;;;;;;20.10;53.90;;;;;;1594821;73;1187;-70
2023/01/04 00:10:46;;;;;;;;;;;20.10;53.90;;;;;;1601033;74;727;-70
2023/01/04 00:12:48;;;;;;;;;;;20.20;53.90;;;;;;1600613;73;1954;-70
2023/01/04 00:14:50;;;;;;;;;;;20.10;53.90;;;;;;1593862;73;766;-70
2023/01/04 00:16:52;;;;;;;;;;;20.10;53.90;;;;;;1596131;74;740;-70
2023/01/04 00:18:54;;;;;;;;;;;20.10;53.80;;;;;;1605927;73;1118;-69
2023/01/04 00:20:57;;;;;;;;;;;20.00;53.70;;;;;;1597935;73;713;-70
2023/01/04 00:22:59;;;;;;;;;;;20.10;53.80;;;;;;1606391;73;1610;-70
2023/01/04 00:25:01;;;;;;;;;;;20.10;53.80;;;;;;1603095;73;1653;-70
2023/01/04 00:27:03;;;;;;;;;;;20.10;53.80;;;;;;1597233;73;603;-69
2023/01/04 00:29:05;;;;;;;;;;;20.10;53.80;;;;;;1596447;73;1111;-70
2023/01/04 00:31:07;;;;;;;;;;;20.10;53.80;;;;;;1601034;73;697;-70
2023/01/04 00:33:09;;;;;;;;;;;20.10;53.80;;;;;;1594017;73;1941;-69
2023/01/04 00:35:11;;;;;;;;;;;20.10;53.80;;;;;;1600737;73;735;-69
2023/01/04 00:37:13;;;;;;;;;;;20.10;53.80;;;;;;1609808;73;1148;-70
2023/01/04 00:39:15;;;;;;;;;;;20.10;53.80;;;;;;1602091;74;713;-70
2023/01/04 00:41:17;;;;;;;;;;;20.10;53.70;;;;;;1597820;73;715;-72
2023/01/04 00:43:19;;;;;;;;;;;20.10;53.70;;;;;;1602012;73;704;-70
2023/01/04 00:45:21;;;;;;;;;;;20.10;53.80;;;;;;1596709;73;718;-69
2023/01/04 00:47:23;;;;;;;;;;;20.10;53.70;;;;;;1596312;73;1080;-70
2023/01/04 00:49:25;;;;;;;;;;;20.10;53.80;;;;;;1600203;73;803;-70
2023/01/04 00:51:27;;;;;;;;;;;20.10;53.80;;;;;;1595990;73;724;-70
2023/01/04 00:53:28;;;;;;;;;;;20.10;53.70;;;;;;1597175;73;1924;-70
2023/01/04 00:55:30;;;;;;;;;;;20.20;53.70;;;;;;1586300;74;711;-71
2023/01/04 00:57:32;;;;;;;;;;;20.10;53.70;;;;;;1596205;73;1188;-70
2023/01/04 00:59:34;;;;;;;;;;;20.20;53.70;;;;;;1603479;73;739;-70
2023/01/04 01:01:36;;;;;;;;;;;20.10;53.80;;;;;;1598561;73;740;-70
2023/01/04 01:03:38;;;;;;;;;;;20.00;53.60;;;;;;1602742;74;756;-70
2023/01/04 01:05:40;;;;;;;;;;;20.00;53.60;;;;;;1597752;74;701;-70
2023/01/04 01:07:42;;;;;;;;;;;20.10;53.80;;;;;;1600506;73;1152;-70
2023/01/04 01:09:44;;;;;;;;;;;20.10;53.80;;;;;;1602960;73;685;-70
2023/01/04 01:11:45;;;;;;;;;;;20.10;53.80;;;;;;1601141;73;1934;-70
2023/01/04 01:13:47;;;;;;;;;;;20.30;53.90;;;;;;1601827;73;636;-70
2023/01/04 01:15:49;;;;;;;;;;;20.10;53.80;;;;;;1609747;73;740;-70
2023/01/04 01:17:51;;;;;;;;;;;20.10;53.80;;;;;;1588070;73;1147;-69
2023/01/04 01:19:53;;;;;;;;;;;20.00;53.70;;;;;;1591859;73;1418;-69
2023/01/04 01:21:56;;;;;;;;;;;20.10;53.80;;;;;;1598193;73;735;-70
2023/01/04 01:23:57;;;;;;;;;;;20.10;53.80;;;;;;1606751;73;706;-70
2023/01/04 01:26:01;;;;;;;;;;;20.10;53.80;;;;;;1591690;73;734;-70
2023/01/04 01:28:03;;;;;;;;;;;20.10;53.80;;;;;;1599337;73;1517;-70
2023/01/04 01:30:05;;;;;;;;;;;20.10;53.80;;;;;;1600436;73;743;-70
2023/01/04 01:32:07;;;;;;;;;;;20.10;53.80;;;;;;1602347;73;1914;-70
2023/01/04 01:34:09;;;;;;;;;;;20.10;53.80;;;;;;1598257;73;708;-70
2023/01/04 01:36:11;;;;;;;;;;;20.10;53.90;;;;;;1598572;73;759;-69
2023/01/04 01:38:13;;;;;;;;;;;20.00;53.70;;;;;;1604833;73;1164;-70
2023/01/04 01:40:15;;;;;;;;;;;20.10;53.80;;;;;;1602691;73;779;-68
2023/01/04 01:42:20;;;;;;;;;;;20.10;53.80;;;;;;1591119;73;719;-72
2023/01/04 01:44:39;;;;;;;;;;;20.10;53.80;;;;;;1605942;73;696;-70
2023/01/04 01:46:42;;;;;;;;;;;20.00;53.70;;;;;;1587122;73;736;-70
2023/01/04 01:48:44;;;;;;;;;;;20.10;53.80;;;;;;1599282;73;1143;-71
2023/01/04 01:50:48;;;;;;;;;;;20.00;53.60;;;;;;1598160;73;717;-70
2023/01/04 01:52:50;;;;;;;;;;;20.10;53.80;;;;;;1602736;73;1943;-70
2023/01/04 01:54:52;;;;;;;;;;;20.00;53.60;;;;;;1601961;73;707;-70
2023/01/04 01:56:55;;;;;;;;;;;20.00;53.60;;;;;;1577302;73;768;-70
2023/01/04 01:58:57;;;;;;;;;;;20.10;53.70;;;;;;1600667;73;1117;-68
2023/01/04 02:00:59;;;;;;;;;;;20.00;53.60;;;;;;1594774;73;692;-69
2023/01/04 02:03:02;;;;;;;;;;;20.10;53.80;;;;;;1602397;73;731;-70
2023/01/04 02:05:04;;;;;;;;;;;20.00;53.60;;;;;;1594120;73;723;-69
2023/01/04 02:07:06;;;;;;;;;;;20.10;53.70;;;;;;1590316;73;750;-70
2023/01/04 02:09:08;;;;;;;;;;;20.10;53.80;;;;;;1599529;73;1184;-71
2023/01/04 02:11:10;;;;;;;;;;;20.00;53.60;;;;;;1599795;73;745;-70
2023/01/04 02:13:12;;;;;;;;;;;20.20;53.70;;;;;;1592154;73;1957;-70
2023/01/04 02:15:14;;;;;;;;;;;20.10;53.60;;;;;;1593996;73;712;-70
2023/01/04 02:17:27;;;;;;;;;;;20.00;53.50;;;;;;1593477;73;1520;-69
2023/01/04 02:19:47;;;;;;;;;;;20.10;53.60;;;;;;1598462;73;2120;-70
2023/01/04 02:21:53;;;;;;;;;;;20.00;53.60;;;;;;1594510;73;748;-68
2023/01/04 02:23:56;;;;;;;;;;;20.10;53.60;;;;;;1605944;73;645;-69
2023/01/04 02:26:15;;;;;;;;;;;20.10;53.70;;;;;;1601733;73;1606;-70
2023/01/04 02:28:27;;;;;;;;;;;20.00;53.50;;;;;;1602231;73;1139;-70
2023/01/04 02:30:33;;;;;;;;;;;20.00;53.60;;;;;;1595854;73;1512;-70
2023/01/04 02:32:53;;;;;;;;;;;20.00;53.50;;;;;;1603280;73;1940;-69
2023/01/04 02:34:57;;;;;;;;;;;20.00;53.60;;;;;;1597495;73;631;-70
2023/01/04 02:37:00;;;;;;;;;;;20.00;53.50;;;;;;1603350;73;1697;-70
2023/01/04 02:39:04;;;;;;;;;;;20.00;53.40;;;;;;1592329;73;1243;-70
2023/01/04 02:41:10;;;;;;;;;;;20.00;53.50;;;;;;1602850;73;731;-68
2023/01/04 02:45:35;;;;;;;;;;;20.10;53.60;;;;;;1596557;73;1863;-70
2023/01/04 02:52:16;;;;;;;;;;;20.00;53.50;;;;;;1598885;73;1927;-69
2023/01/04 02:54:20;;;;;;;;;;;20.00;53.50;;;;;;1601064;73;732;-70
2023/01/04 02:56:34;;;;;;;;;;;20.00;53.50;;;;;;1602764;73;690;-70
2023/01/04 02:58:37;;;;;;;;;;;20.00;53.50;;;;;;1600753;73;1652;-70
2023/01/04 03:06:14;;;;;;;;;;;20.00;53.50;;;;;;1602011;73;1598;-70
2023/01/04 03:07:58;;;;;;;;;;;20.00;53.50;;;;;;1597081;73;1929;-70
2023/01/04 03:10:01;;;;;;;;;;;20.00;53.50;;;;;;1593750;74;1750;-70
2023/01/04 03:14:32;;;;;;;;;;;20.00;53.50;;;;;;1596788;73;1805;-69
2023/01/04 03:16:33;;;;;;;;;;;20.00;53.50;;;;;;1608361;73;731;-66
2023/01/04 03:18:40;;;;;;;;;;;20.00;53.40;;;;;;1602548;73;1121;-69
2023/01/04 03:20:42;;;;;;;;;;;19.90;53.50;;;;;;1600463;73;1009;-70
2023/01/04 03:37:04;;;;;;;;;;;20.00;53.40;;;;;;1606350;73;788;-70
2023/01/04 03:48:54;;;;;;;;;;;20.00;53.40;;;;;;1598976;73;1811;-70
2023/01/04 03:50:58;;;;;;;;;;;20.40;53.60;;;;;;1602410;73;743;-68
2023/01/04 03:53:00;;;;;;;;;;;20.10;53.50;;;;;;1594601;73;1938;-71
2023/01/04 03:55:02;;;;;;;;;;;20.00;53.40;;;;;;1603021;73;693;-71
2023/01/04 03:57:04;;;;;;;;;;;20.00;53.40;;;;;;1600990;73;711;-71
2023/01/04 03:59:06;;;;;;;;;;;20.00;53.40;;;;;;1601803;73;1120;-71
2023/01/04 04:01:07;;;;;;;;;;;20.00;53.40;;;;;;1602977;73;697;-73
2023/01/04 04:03:09;;;;;;;;;;;20.00;53.40;;;;;;1601791;73;708;-70
2023/01/04 04:09:58;;;;;;;;;;;20.00;53.30;;;;;;1582335;73;1626;-72
2023/01/04 04:12:00;;;;;;;;;;;20.10;53.40;;;;;;1603183;73;726;-70
2023/01/04 04:14:02;;;;;;;;;;;20.00;53.30;;;;;;1601627;73;1949;-71
2023/01/04 04:16:04;;;;;;;;;;;20.10;53.40;;;;;;1600481;74;779;-71
2023/01/04 04:18:06;;;;;;;;;;;20.10;53.40;;;;;;1603186;73;1218;-70
2023/01/04 04:20:08;;;;;;;;;;;20.00;53.40;;;;;;1601364;73;718;-71
2023/01/04 04:22:10;;;;;;;;;;;20.20;53.40;;;;;;1601396;73;724;-72
2023/01/04 04:24:23;;;;;;;;;;;20.00;53.40;;;;;;1600813;74;618;-70
2023/01/04 04:26:25;;;;;;;;;;;20.00;53.40;;;;;;1602811;73;683;-70
2023/01/04 04:28:26;;;;;;;;;;;20.00;53.30;;;;;;1584618;71;2079;-70
2023/01/04 04:30:28;;;;;;;;;;;20.00;53.30;;;;;;1570930;74;864;-71
2023/01/04 04:32:30;;;;;;;;;;;20.00;53.20;;;;;;1569824;75;740;-72
2023/01/04 04:34:32;;;;;;;;;;;20.00;53.30;;;;;;1561348;74;1923;-70
2023/01/04 04:36:34;;;;;;;;;;;20.10;53.40;;;;;;1570898;74;732;-70
2023/01/04 04:38:36;;;;;;;;;;;20.00;53.20;;;;;;1565658;74;1210;-70
2023/01/04 04:42:58;;;;;;;;;;;20.00;53.20;;;;;;1537064;75;667;-71
2023/01/04 04:44:59;;;;;;;;;;;20.00;53.20;;;;;;1546226;75;757;-71
2023/01/04 04:47:01;;;;;;;;;;;20.00;53.30;;;;;;1544583;75;722;-73
2023/01/04 04:49:03;;;;;;;;;;;20.00;53.30;;;;;;1549585;75;1221;-70
2023/01/04 04:51:05;;;;;;;;;;;20.00;53.30;;;;;;1545571;75;721;-70
2023/01/04 04:53:07;;;;;;;;;;;20.10;53.40;;;;;;1546868;75;1934;-70
2023/01/04 04:55:09;;;;;;;;;;;20.10;53.40;;;;;;1535298;75;693;-70
2023/01/04 04:57:11;;;;;;;;;;;20.00;53.30;;;;;;1542882;75;719;-71
2023/01/04 04:59:13;;;;;;;;;;;20.00;53.30;;;;;;1546007;75;1137;-70
2023/01/04 05:01:15;;;;;;;;;;;20.00;53.20;;;;;;1537268;75;749;-70
2023/01/04 05:03:17;;;;;;;;;;;20.00;53.30;;;;;;1538198;75;747;-70
2023/01/04 05:05:18;;;;;;;;;;;20.00;53.30;;;;;;1551116;75;1487;-70
2023/01/04 05:07:20;;;;;;;;;;;20.00;53.30;;;;;;1543991;75;693;-69
2023/01/04 05:09:22;;;;;;;;;;;20.00;53.30;;;;;;1548582;75;1144;-71
2023/01/04 05:13:40;;;;;;;;;;;20.00;53.30;;;;;;1491920;78;1908;-72
2023/01/04 05:15:42;;;;;;;;;;;20.00;53.20;;;;;;1544117;75;653;-70
2023/01/04 05:17:44;;;;;;;;;;;20.00;53.20;;;;;;1544330;75;1210;-71
2023/01/04 05:19:46;;;;;;;;;;;20.00;53.10;;;;;;1554352;75;716;-71
2023/01/04 05:21:48;;;;;;;;;;;20.00;53.30;;;;;;1547806;75;747;-69
2023/01/04 05:23:50;;;;;;;;;;;20.00;53.20;;;;;;1544776;75;725;-69
2023/01/04 05:25:56;;;;;;;;;;;20.00;53.30;;;;;;1541700;75;731;-71
2023/01/04 05:27:58;;;;;;;;;;;20.00;53.30;;;;;;1543779;75;1151;-71
2023/01/04 05:32:19;;;;;;;;;;;20.10;53.40;;;;;;1537979;75;625;-72
2023/01/04 05:34:21;;;;;;;;;;;20.00;53.20;;;;;;1540095;75;1929;-70
2023/01/04 05:36:23;;;;;;;;;;;20.00;53.30;;;;;;1548396;75;710;-70
2023/01/04 05:38:25;;;;;;;;;;;20.00;53.30;;;;;;1543948;75;1158;-71
2023/01/04 05:40:27;;;;;;;;;;;20.00;53.20;;;;;;1534971;75;697;-71
2023/01/04 05:42:29;;;;;;;;;;;20.00;53.30;;;;;;1545663;75;714;-71
2023/01/04 05:44:31;;;;;;;;;;;20.00;53.30;;;;;;1536591;75;724;-71
2023/01/04 05:46:32;;;;;;;;;;;20.00;53.30;;;;;;1539612;75;713;-72
2023/01/04 05:48:34;;;;;;;;;;;20.00;53.20;;;;;;1544271;75;1214;-70
2023/01/04 05:50:36;;;;;;;;;;;20.00;53.30;;;;;;1529383;75;709;-71
2023/01/04 05:52:38;;;;;;;;;;;20.00;53.20;;;;;;1551441;75;738;-71
2023/01/04 05:54:40;;;;;;;;;;;20.00;53.20;;;;;;1544886;75;1972;-69
2023/01/04 05:56:42;;;;;;;;;;;20.00;53.30;;;;;;1539023;75;734;-70
2023/01/04 05:58:44;;;;;;;;;;;20.00;53.20;;;;;;1543636;75;1151;-71
2023/01/04 06:00:46;;;;;;;;;;;20.00;53.10;;;;;;1544898;75;740;-71
2023/01/04 06:02:47;;;;;;;;;;;20.00;53.10;;;;;;1532895;75;726;-69
2023/01/04 06:04:49;;;;;;;;;;;20.00;53.10;;;;;;1545151;75;706;-71
2023/01/04 06:06:51;;;;;;;;;;;20.00;53.10;;;;;;1550486;75;720;-71
2023/01/04 06:08:53;;;;;;;;;;;20.10;53.20;;;;;;1545940;75;1143;-69
2023/01/04 06:10:55;;;;;;;;;;;20.10;53.20;;;;;;1545208;75;740;-71
2023/01/04 06:12:57;;;;;;;;;;;20.00;53.10;;;;;;1543896;75;741;-71
2023/01/04 06:14:59;;;;;;;;;;;20.00;53.10;;;;;;1543615;75;1946;-73
2023/01/04 06:17:01;;;;;;;;;;;20.00;53.10;;;;;;1547092;75;707;-69
2023/01/04 06:19:02;;;;;;;;;;;20.00;53.20;;;;;;1546595;75;1157;-70
2023/01/04 06:21:04;;;;;;;;;;;20.00;53.10;;;;;;1550064;75;729;-70
2023/01/04 06:23:07;;;;;;;;;;;20.00;53.10;;;;;;1543910;75;713;-70
2023/01/04 06:25:09;;;;;;;;;;;20.00;53.10;;;;;;1542991;75;722;-70
2023/01/04 06:27:11;;;;;;;;;;;20.00;53.10;;;;;;1550898;75;772;-71
2023/01/04 06:29:13;;;;;;;;;;;20.00;53.10;;;;;;1553168;75;1127;-71
2023/01/04 06:31:15;;;;;;;;;;;20.00;53.10;;;;;;1550949;75;596;-71
2023/01/04 06:33:17;;;;;;;;;;;20.00;53.10;;;;;;1548361;75;578;-70
2023/01/04 06:35:19;;;;;;;;;;;20.00;53.10;;;;;;1559909;75;1948;-71
2023/01/04 06:37:20;;;;;;;;;;;20.00;53.10;;;;;;1552513;75;753;-69
2023/01/04 06:39:22;;;;;;;;;;;20.00;53.10;;;;;;1545357;75;1154;-71
2023/01/04 06:41:24;;;;;;;;;;;20.00;53.10;;;;;;1538099;75;736;-71
2023/01/04 06:43:26;;;;;;;;;;;20.00;53.00;;;;;;1535304;75;717;-69
2023/01/04 06:45:28;;;;;;;;;;;20.00;53.00;;;;;;1544773;75;714;-71
2023/01/04 06:47:30;;;;;;;;;;;20.00;53.00;;;;;;1545560;75;720;-70
2023/01/04 06:49:32;;;;;;;;;;;20.00;53.00;;;;;;1547510;75;1080;-71
2023/01/04 06:51:34;;;;;;;;;;;20.00;53.00;;;;;;1550477;75;725;-70
2023/01/04 06:53:35;;;;;;;;;;;20.00;53.00;;;;;;1538920;75;1998;-70
2023/01/04 06:55:37;;;;;;;;;;;20.00;53.10;;;;;;1534820;75;707;-71
2023/01/04 06:57:39;;;;;;;;;;;20.00;53.10;;;;;;1544880;75;1497;-71
2023/01/04 06:59:41;;;;;;;;;;;20.00;53.00;;;;;;1544363;75;699;-71
2023/01/04 07:01:43;;;;;;;;;;;20.00;53.00;;;;;;1545867;75;606;-71
2023/01/04 07:03:45;;;;;;;;;;;19.90;53.00;;;;;;1534474;75;702;-72
2023/01/04 07:05:47;;;;;;;;;;;20.00;53.10;;;;;;1540463;75;753;-71
2023/01/04 07:07:48;;;;;;;;;;;20.00;53.00;;;;;;1545829;75;1278;-71
2023/01/04 07:09:50;;;;;;;;;;;20.00;52.90;;;;;;1543921;75;717;-71
2023/01/04 07:11:52;;;;;;;;;;;20.00;53.00;;;;;;1545816;75;769;-73
2023/01/04 07:13:54;;;;;;;;;;;20.00;53.10;;;;;;1554356;75;1947;-71
2023/01/04 07:15:56;;;;;;;;;;;20.00;53.10;;;;;;1545447;75;752;-71
2023/01/04 07:17:58;;;;;;;;;;;20.00;53.10;;;;;;1545371;75;1181;-71
2023/01/04 07:20:00;;;;;;;;;;;19.90;53.00;;;;;;1550864;75;694;-71
2023/01/04 07:22:02;;;;;;;;;;;20.00;53.00;;;;;;1544515;75;763;-71
2023/01/04 07:24:03;;;;;;;;;;;20.00;53.00;;;;;;1545461;75;769;-71
2023/01/04 07:26:05;;;;;;;;;;;20.00;53.00;;;;;;1546139;75;705;-71
2023/01/04 07:28:08;;;;;;;;;;;20.00;53.00;;;;;;1531875;75;1143;-72
2023/01/04 07:30:10;;;;;;;;;;;20.00;53.00;;;;;;1545614;75;752;-71
2023/01/04 07:32:12;;;;;;;;;;;19.90;53.00;;;;;;1549118;75;732;-70
2023/01/04 07:34:14;;;;;;;;;;;20.00;52.90;;;;;;1550268;75;1940;-71
2023/01/04 07:36:16;;;;;;;;;;;20.00;53.00;;;;;;1544220;75;747;-71
2023/01/04 07:38:18;;;;;;;;;;;20.00;52.90;;;;;;1552710;74;1147;-71
2023/01/04 07:40:20;;;;;;;;;;;20.00;52.90;;;;;;1526288;75;712;-72
2023/01/04 07:42:22;;;;;;;;;;;20.00;52.90;;;;;;1549332;75;699;-71
2023/01/04 07:44:26;;;;;;;;;;;20.00;52.90;;;;;;1536887;75;717;-71
2023/01/04 07:46:27;;;;;;;;;;;20.00;52.90;;;;;;1543112;75;1132;-71
2023/01/04 07:48:29;;;;;;;;;;;20.00;52.90;;;;;;1541132;75;1164;-71
2023/01/04 07:50:31;;;;;;;;;;;20.00;52.80;;;;;;1544874;75;638;-71
2023/01/04 07:52:33;;;;;;;;;;;20.00;52.90;;;;;;1543774;75;740;-70
2023/01/04 07:54:35;;;;;;;;;;;20.00;52.90;;;;;;1543554;75;1970;-72
2023/01/04 07:56:37;;;;;;;;;;;20.00;52.80;;;;;;1543220;75;756;-71
2023/01/04 07:58:40;;;;;;;;;;;20.00;52.90;;;;;;1530684;75;1151;-71
2023/01/04 08:00:42;;;;;;;;;;;20.00;52.90;;;;;;1544059;75;708;-70
2023/01/04 08:02:44;;;;;;;;;;;20.00;52.90;;;;;;1549713;75;727;-71
2023/01/04 08:04:46;;;;;;;;;;;20.00;52.90;;;;;;1534971;75;741;-72
2023/01/04 08:06:48;;;;;;;;;;;20.00;52.80;;;;;;1543405;75;725;-71
2023/01/04 08:08:50;;;;;;;;;;;20.00;52.80;;;;;;1543326;75;1137;-71
2023/01/04 08:10:52;;;;;;;;;;;20.10;52.90;;;;;;1541617;75;812;-70
2023/01/04 08:12:54;;;;;;;;;;;20.10;52.90;;;;;;1543644;75;734;-71
2023/01/04 08:14:56;;;;;;;;;;;20.00;52.70;;;;;;1542473;75;1947;-69
2023/01/04 08:16:57;;;;;;;;;;;20.20;52.80;;;;;;1544678;75;701;-70
2023/01/04 08:19:00;;;;;;;;;;;20.10;52.50;;;;;;1544282;75;1177;-70
2023/01/04 08:21:04;;;;;;;;;;;20.10;52.60;;;;;;1538864;75;745;-70
2023/01/04 08:23:05;;;;;;;;;;;20.20;52.60;;;;;;1544261;75;702;-69
2023/01/04 08:25:07;;;;;;;;;;;20.20;52.20;;;;;;1543864;75;737;-70
2023/01/04 08:27:09;;;;;;;;;;;20.20;52.30;;;;;;1543582;75;744;-71
2023/01/04 08:29:11;;;;;;;;;;;20.20;52.30;;;;;;1550050;74;1162;-70
2023/01/04 08:31:14;;;;;;;;;;;20.20;52.20;;;;;;1544711;75;710;-70
2023/01/04 08:33:16;;;;;;;;;;;20.20;52.10;;;;;;1545527;75;713;-70
2023/01/04 08:35:18;;;;;;;;;;;20.30;52.20;;;;;;1544135;75;1928;-70
2023/01/04 08:37:20;;;;;;;;;;;20.20;52.00;;;;;;1542027;75;776;-70
2023/01/04 08:39:22;;;;;;;;;;;20.20;52.10;;;;;;1542867;75;1151;-70
2023/01/04 08:41:23;;;;;;;;;;;20.20;52.00;;;;;;1551340;75;686;-70
2023/01/04 08:43:25;;;;;;;;;;;20.20;52.00;;;;;;1542885;75;714;-71
2023/01/04 08:45:28;;;;;;;;;;;20.30;52.10;;;;;;1543077;75;756;-70
2023/01/04 08:47:30;;;;;;;;;;;20.30;52.30;;;;;;1547724;75;797;-71
2023/01/04 08:49:32;;;;;;;;;;;20.20;52.10;;;;;;1537493;75;1514;-70
2023/01/04 08:51:34;;;;;;;;;;;20.30;52.30;;;;;;1547809;75;592;-70
2023/01/04 08:53:36;;;;;;;;;;;20.30;52.30;;;;;;1549231;75;728;-72
2023/01/04 08:55:38;;;;;;;;;;;20.20;52.30;;;;;;1547596;75;1956;-71
2023/01/04 08:57:40;;;;;;;;;;;20.20;52.20;;;;;;1543827;75;1146;-71
2023/01/04 08:59:42;;;;;;;;;;;20.10;52.20;;;;;;1538018;75;709;-71
2023/01/04 09:01:44;;;;;;;;;;;20.20;52.30;;;;;;1549878;75;752;-71
2023/01/04 09:03:46;;;;;;;;;;;20.20;52.30;;;;;;1543543;75;724;-71
2023/01/04 09:05:48;;;;;;;;;;;20.20;52.30;;;;;;1542956;75;729;-71
2023/01/04 09:07:50;;;;;;;;;;;20.20;52.30;;;;;;1543473;75;1141;-71
2023/01/04 09:09:52;;;;;;;;;;;20.20;52.20;;;;;;1543721;75;714;-71
2023/01/04 09:11:54;;;;;;;;;;;20.20;52.30;;;;;;1534992;75;729;-71
2023/01/04 09:13:56;;;;;;;;;;;20.20;52.30;;;;;;1543457;75;725;-71
2023/01/04 09:16:02;;;;;;;;;;;20.20;52.40;;;;;;1544226;75;1928;-71
2023/01/04 09:18:06;;;;;;;;;;;20.10;52.30;;;;;;1549424;75;1151;-72
2023/01/04 09:20:08;;;;;;;;;;;20.20;52.30;;;;;;1543377;75;1124;-71
2023/01/04 09:22:10;;;;;;;;;;;20.10;52.30;;;;;;1542872;75;635;-71
2023/01/04 09:24:12;;;;;;;;;;;20.20;52.30;;;;;;1546720;75;728;-72
2023/01/04 09:26:15;;;;;;;;;;;20.20;52.30;;;;;;1542417;75;718;-70
2023/01/04 09:28:17;;;;;;;;;;;20.20;52.30;;;;;;1546049;75;1161;-70
2023/01/04 09:30:19;;;;;;;;;;;20.30;52.40;;;;;;1543963;75;735;-72
2023/01/04 09:32:21;;;;;;;;;;;20.20;52.30;;;;;;1543769;75;776;-72
2023/01/04 09:34:23;;;;;;;;;;;20.20;52.30;;;;;;1543965;75;756;-70
2023/01/04 09:36:25;;;;;;;;;;;20.20;52.20;;;;;;1541490;75;1921;-71
2023/01/04 09:38:27;;;;;;;;;;;20.30;52.40;;;;;;1536967;75;1167;-71
2023/01/04 09:40:33;;;;;;;;;;;20.20;52.20;;;;;;1543036;75;723;-70
2023/01/04 09:42:37;;;;;;;;;;;20.20;52.30;;;;;;1544248;76;736;-70
2023/01/04 09:44:57;;;;;;;;;;;20.20;52.30;;;;;;1553233;75;791;-70
2023/01/04 09:46:59;;;;;;;;;;;20.30;52.40;;;;;;1541564;75;1539;-70
2023/01/04 09:49:02;;;;;;;;;;;20.30;52.40;;;;;;1532056;75;1107;-71
2023/01/04 09:51:05;;;;;;;;;;;20.20;52.30;;;;;;1542012;75;1116;-70
2023/01/04 09:53:11;;;;;;;;;;;20.20;52.30;;;;;;1542419;75;729;-73
2023/01/04 09:55:18;;;;;;;;;;;20.20;52.20;;;;;;1534437;75;1965;-71
2023/01/04 09:57:22;;;;;;;;;;;20.20;52.30;;;;;;1540809;75;1006;-71
2023/01/04 09:59:31;;;;;;;;;;;20.20;52.30;;;;;;1540376;75;1118;-71
2023/01/04 10:01:34;;;;;;;;;;;20.20;52.30;;;;;;1540842;75;739;-71
2023/01/04 10:03:40;;;;;;;;;;;20.20;52.30;;;;;;1533044;75;1071;-72
2023/01/04 10:05:42;;;;;;;;;;;20.30;52.50;;;;;;1543143;75;640;-71
2023/01/04 10:07:44;;;;;;;;;;;20.20;52.30;;;;;;1543920;75;1140;-71
2023/01/04 10:09:46;;;;;;;;;;;20.20;52.30;;;;;;1544144;75;697;-71
2023/01/04 10:11:49;;;;;;;;;;;20.30;52.30;;;;;;1531251;75;709;-71
2023/01/04 10:14:02;;;;;;;;;;;20.20;52.30;;;;;;1546858;75;766;-71
2023/01/04 10:16:12;;;;;;;;;;;20.30;52.40;;;;;;1533462;75;1911;-71
2023/01/04 10:18:27;;;;;;;;;;;20.30;52.30;;;;;;1533653;75;1237;-71
2023/01/04 10:20:31;;;;;;;;;;;20.20;52.20;;;;;;1549763;75;1116;-71
2023/01/04 10:22:37;;;;;;;;;;;20.30;52.30;;;;;;1543211;75;1589;-70
2023/01/04 10:24:49;;;;;;;;;;;20.20;52.20;;;;;;1543163;75;739;-71
2023/01/04 10:26:53;;;;;;;;;;;20.20;52.20;;;;;;1538350;75;1188;-69
2023/01/04 10:28:56;;;;;;;;;;;20.30;52.30;;;;;;1555608;71;2077;-70
2023/01/04 10:31:12;;;;;;;;;;;20.20;52.20;;;;;;1599589;73;1082;-70
2023/01/04 10:33:15;;;;;;;;;;;20.20;52.30;;;;;;1600828;73;788;-71
2023/01/04 10:35:21;;;;;;;;;;;20.20;52.20;;;;;;1601965;73;1941;-73
2023/01/04 10:37:24;;;;;;;;;;;20.20;52.30;;;;;;1596072;73;1048;-70
2023/01/04 10:39:27;;;;;;;;;;;20.20;52.30;;;;;;1597741;73;1141;-70
2023/01/04 10:41:31;;;;;;;;;;;20.20;52.30;;;;;;1592668;73;994;-71
2023/01/04 10:43:43;;;;;;;;;;;20.10;52.30;;;;;;1600018;73;1697;-70
2023/01/04 10:45:53;;;;;;;;;;;20.20;52.30;;;;;;1586458;73;721;-69
2023/01/04 10:48:08;;;;;;;;;;;20.10;52.30;;;;;;1598757;73;720;-70
2023/01/04 10:50:18;;;;;;;;;;;20.20;52.30;;;;;;1596625;73;1130;-71
2023/01/04 10:52:30;;;;;;;;;;;20.20;52.30;;;;;;1595216;73;649;-69
2023/01/04 10:54:47;;;;;;;;;;;20.20;52.40;;;;;;1596705;74;723;-70
2023/01/04 10:56:51;;;;;;;;;;;20.20;52.30;;;;;;1597786;73;1897;-70
2023/01/04 10:58:54;;;;;;;;;;;20.20;52.30;;;;;;1590560;73;1496;-69
2023/01/04 11:00:59;;;;;;;;;;;20.20;52.40;;;;;;1592899;73;1527;-70
2023/01/04 11:03:02;;;;;;;;;;;20.10;52.40;;;;;;1597351;73;676;-71
2023/01/04 11:05:11;;;;;;;;;;;20.10;52.40;;;;;;1595857;73;731;-71
2023/01/04 11:07:17;;;;;;;;;;;20.10;52.40;;;;;;1600238;73;1670;-71
2023/01/04 11:09:20;;;;;;;;;;;20.10;52.40;;;;;;1600512;73;1126;-71
2023/01/04 11:11:24;;;;;;;;;;;20.10;52.40;;;;;;1603272;73;724;-71
2023/01/04 11:13:26;;;;;;;;;;;20.10;52.40;;;;;;1602846;73;708;-71
2023/01/04 11:15:28;;;;;;;;;;;20.10;52.40;;;;;;1600006;73;1940;-70
2023/01/04 11:17:30;;;;;;;;;;;20.10;52.40;;;;;;1604800;73;770;-72
2023/01/04 11:19:32;;;;;;;;;;;20.20;52.50;;;;;;1599227;73;1159;-72
2023/01/04 11:21:35;;;;;;;;;;;20.10;52.50;;;;;;1602168;73;722;-71
2023/01/04 11:23:37;;;;;;;;;;;20.10;52.50;;;;;;1607199;73;733;-71
2023/01/04 11:25:40;;;;;;;;;;;20.10;52.60;;;;;;1602677;73;577;-72
2023/01/04 11:27:43;;;;;;;;;;;20.10;52.40;;;;;;1599641;73;729;-69
2023/01/04 11:29:47;;;;;;;;;;;20.20;52.40;;;;;;1596203;73;1121;-74
2023/01/04 11:31:49;;;;;;;;;;;20.20;52.30;;;;;;1598690;73;698;-73
2023/01/04 11:33:52;;;;;;;;;;;20.20;52.30;;;;;;1601630;73;775;-75
2023/01/04 11:35:55;;;;;;;;;;;20.10;52.30;;;;;;1583995;73;1946;-73
2023/01/04 11:37:59;;;;;;;;;;;20.10;52.30;;;;;;1603269;73;716;-75
2023/01/04 11:40:17;;;;;;;;;;;20.20;52.30;;;;;;1598541;73;1604;-75
2023/01/04 11:42:20;;;;;;;;;;;20.10;52.30;;;;;;1594713;73;740;-73
2023/01/04 11:44:22;;;;;;;;;;;20.10;52.60;;;;;;1593322;73;711;-73
2023/01/04 11:46:24;;;;;;;;;;;20.10;52.80;;;;;;1597795;73;720;-74
2023/01/04 11:48:42;;;;;;;;;;;20.20;53.10;;;;;;1598811;73;703;-74
2023/01/04 11:50:46;;;;;;;;;;;20.10;53.40;;;;;;1595153;73;743;-73
2023/01/04 11:52:47;;;;;;;;;;;20.20;53.40;;;;;;1591896;73;969;-73
2023/01/04 11:54:49;;;;;;;;;;;20.20;53.50;;;;;;1600433;73;712;-73
2023/01/04 11:56:53;;;;;;;;;;;20.50;53.90;;;;;;1595621;73;1938;-73
2023/01/04 11:59:06;;;;;;;;;;;20.30;53.80;;;;;;1587245;73;1116;-73
2023/01/04 12:01:05;;;;;;;;;;;20.30;53.90;;;;;;1594978;73;810;-74
2023/01/04 12:03:11;;;;;;;;;;;20.30;53.80;;;;;;1601826;73;744;-73
2023/01/04 12:05:18;;;;;;;;;;;20.30;53.80;;;;;;1597754;73;1023;-73
2023/01/04 12:07:27;;;;;;;;;;;20.30;53.80;;;;;;1598277;73;1060;-73
2023/01/04 12:09:29;;;;;;;;;;;20.30;53.70;;;;;;1595196;73;1128;-74
2023/01/04 12:11:35;;;;;;;;;;;20.30;53.80;;;;;;1600894;73;714;-75
2023/01/04 12:13:38;;;;;;;;;;;20.30;53.90;;;;;;1602116;73;710;-75
2023/01/04 12:15:50;;;;;;;;;;;20.30;53.80;;;;;;1602708;73;1902;-75
2023/01/04 12:17:54;;;;;;;;;;;20.30;53.90;;;;;;1593342;73;1138;-75
2023/01/04 12:19:56;;;;;;;;;;;20.30;53.90;;;;;;1592334;73;1146;-75
2023/01/04 12:21:59;;;;;;;;;;;20.20;53.90;;;;;;1599145;73;776;-73
2023/01/04 12:24:01;;;;;;;;;;;20.30;53.90;;;;;;1593553;73;714;-70
2023/01/04 12:26:03;;;;;;;;;;;20.30;53.90;;;;;;1601552;73;717;-77
2023/01/04 12:28:04;;;;;;;;;;;20.30;53.80;;;;;;1590888;73;783;-71
2023/01/04 12:30:09;;;;;;;;;;;20.30;53.80;;;;;;1599655;73;1168;-72
2023/01/04 12:32:18;;;;;;;;;;;20.30;53.90;;;;;;1597247;73;672;-71
2023/01/04 12:34:28;;;;;;;;;;;20.30;53.80;;;;;;1600731;73;1209;-71
2023/01/04 12:36:45;;;;;;;;;;;20.30;53.70;;;;;;1597745;73;1925;-71
2023/01/04 12:39:02;;;;;;;;;;;20.30;53.80;;;;;;1600266;73;1202;-71
2023/01/04 12:41:04;;;;;;;;;;;20.30;53.80;;;;;;1597614;73;704;-71
2023/01/04 12:43:16;;;;;;;;;;;20.20;53.60;;;;;;1603077;73;851;-71
2023/01/04 12:45:20;;;;;;;;;;;20.20;53.70;;;;;;1600608;73;789;-70
2023/01/04 12:49:52;;;;;;;;;;;20.20;53.70;;;;;;1601675;73;1727;-71
2023/01/04 12:52:12;;;;;;;;;;;20.20;53.70;;;;;;1573123;74;1286;-71
2023/01/04 12:54:30;;;;;;;;;;;20.20;53.70;;;;;;1603324;73;929;-71
2023/01/04 12:56:45;;;;;;;;;;;20.20;53.70;;;;;;1604476;73;1913;-71
2023/01/04 12:59:06;;;;;;;;;;;20.20;53.80;;;;;;1604019;73;1138;-69
2023/01/04 13:01:08;;;;;;;;;;;20.20;53.70;;;;;;1608847;73;759;-70
2023/01/04 13:03:17;;;;;;;;;;;20.10;53.70;;;;;;1601969;73;816;-71
2023/01/04 13:05:21;;;;;;;;;;;20.10;53.70;;;;;;1598786;73;732;-71
2023/01/04 13:07:24;;;;;;;;;;;20.20;53.60;;;;;;1602949;73;743;-71
2023/01/04 13:09:26;;;;;;;;;;;20.20;53.70;;;;;;1542698;75;1861;-72